sensor_id;sensor_type;location;lat;lon;timestamp;P1;durP1;ratioP1;P2;durP2;ratioP2
19193;SDS011;9729;52.296;13.260;2023-03-03T00:00:22;28.90;;;11.57;;
19193;SDS011;9729;52.296;13.260;2023-03-03T00:02:49;21.67;;;10.97;;
19193;SDS011;9729;52.296;13.260;2023-03-03T00:05:17;28.33;;;11.37;;
19193;SDS011;9729;52.296;13.260;2023-03-03T00:07:43;28.70;;;11.77;;
19193;SDS011;9729;52.296;13.260;2023-03-03T00:10:10;24.37;;;11.23;;
19193;SDS011;9729;52.296;13.260;2023-03-03T00:12:38;36.93;;;11.43;;
19193;SDS011;9729;52.296;13.260;2023-03-03T00:15:12;35.90;;;11.67;;
19193;SDS011;9729;52.296;13.260;2023-03-03T00:17:40;28.33;;;11.57;;
19193;SDS011;9729;52.296;13.260;2023-03-03T00:23:05;34.83;;;12.73;;
19193;SDS011;9729;52.296;13.260;2023-03-03T00:25:38;49.30;;;13.93;;
19193;SDS011;9729;52.296;13.260;2023-03-03T00:28:14;24.57;;;11.77;;
19193;SDS011;9729;52.296;13.260;2023-03-03T00:30:43;25.73;;;12.83;;
19193;SDS011;9729;52.296;13.260;2023-03-03T00:33:12;22.13;;;10.83;;
19193;SDS011;9729;52.296;13.260;2023-03-03T00:35:46;36.60;;;12.00;;
19193;SDS011;9729;52.296;13.260;2023-03-03T00:38:15;21.90;;;11.33;;
19193;SDS011;9729;52.296;13.260;2023-03-03T00:40:43;25.27;;;12.67;;
19193;SDS011;9729;52.296;13.260;2023-03-03T00:43:14;27.30;;;12.37;;
19193;SDS011;9729;52.296;13.260;2023-03-03T00:45:44;31.17;;;11.47;;
19193;SDS011;9729;52.296;13.260;2023-03-03T00:48:18;33.47;;;13.50;;
19193;SDS011;9729;52.296;13.260;2023-03-03T00:50:46;26.00;;;11.33;;
19193;SDS011;9729;52.296;13.260;2023-03-03T00:53:15;31.93;;;14.67;;
19193;SDS011;9729;52.296;13.260;2023-03-03T00:55:44;31.17;;;14.00;;
19193;SDS011;9729;52.296;13.260;2023-03-03T00:58:11;28.93;;;12.13;;
19193;SDS011;9729;52.296;13.260;2023-03-03T01:00:37;36.57;;;12.63;;
19193;SDS011;9729;52.296;13.260;2023-03-03T01:03:05;26.73;;;11.97;;
19193;SDS011;9729;52.296;13.260;2023-03-03T01:05:32;30.60;;;13.40;;
19193;SDS011;9729;52.296;13.260;2023-03-03T01:08:01;28.23;;;12.67;;
19193;SDS011;9729;52.296;13.260;2023-03-03T01:10:30;24.43;;;12.17;;
19193;SDS011;9729;52.296;13.260;2023-03-03T01:13:01;35.00;;;12.90;;
19193;SDS011;9729;52.296;13.260;2023-03-03T01:15:28;30.20;;;12.20;;
19193;SDS011;9729;52.296;13.260;2023-03-03T01:17:55;27.23;;;12.73;;
19193;SDS011;9729;52.296;13.260;2023-03-03T01:20:21;30.17;;;14.80;;
19193;SDS011;9729;52.296;13.260;2023-03-03T01:22:48;27.27;;;12.50;;
19193;SDS011;9729;52.296;13.260;2023-03-03T01:25:14;28.47;;;12.63;;
19193;SDS011;9729;52.296;13.260;2023-03-03T01:27:42;27.90;;;13.13;;
19193;SDS011;9729;52.296;13.260;2023-03-03T01:30:09;29.33;;;13.23;;
19193;SDS011;9729;52.296;13.260;2023-03-03T01:32:38;30.83;;;12.70;;
19193;SDS011;9729;52.296;13.260;2023-03-03T01:35:05;33.10;;;13.07;;
19193;SDS011;9729;52.296;13.260;2023-03-03T01:37:32;32.57;;;12.17;;
19193;SDS011;9729;52.296;13.260;2023-03-03T01:39:59;33.97;;;13.50;;
19193;SDS011;9729;52.296;13.260;2023-03-03T01:42:25;28.77;;;12.20;;
19193;SDS011;9729;52.296;13.260;2023-03-03T01:47:39;24.40;;;11.87;;
19193;SDS011;9729;52.296;13.260;2023-03-03T01:50:09;37.07;;;12.43;;
19193;SDS011;9729;52.296;13.260;2023-03-03T01:52:38;33.47;;;13.23;;
19193;SDS011;9729;52.296;13.260;2023-03-03T01:55:07;33.70;;;13.90;;
19193;SDS011;9729;52.296;13.260;2023-03-03T01:57:38;33.60;;;12.60;;
19193;SDS011;9729;52.296;13.260;2023-03-03T02:00:07;34.23;;;13.33;;
19193;SDS011;9729;52.296;13.260;2023-03-03T02:02:37;33.57;;;13.87;;
19193;SDS011;9729;52.296;13.260;2023-03-03T02:05:05;25.50;;;11.50;;
19193;SDS011;9729;52.296;13.260;2023-03-03T02:07:32;30.33;;;12.97;;
19193;SDS011;9729;52.296;13.260;2023-03-03T02:10:01;28.47;;;12.50;;
19193;SDS011;9729;52.296;13.260;2023-03-03T02:12:32;31.70;;;13.13;;
19193;SDS011;9729;52.296;13.260;2023-03-03T02:15:07;36.70;;;15.37;;
19193;SDS011;9729;52.296;13.260;2023-03-03T02:17:43;36.67;;;14.77;;
19193;SDS011;9729;52.296;13.260;2023-03-03T02:20:10;34.37;;;15.20;;
19193;SDS011;9729;52.296;13.260;2023-03-03T02:22:40;34.03;;;14.57;;
19193;SDS011;9729;52.296;13.260;2023-03-03T02:25:12;35.83;;;15.13;;
19193;SDS011;9729;52.296;13.260;2023-03-03T02:27:42;39.30;;;16.10;;
19193;SDS011;9729;52.296;13.260;2023-03-03T02:30:10;37.47;;;14.80;;
19193;SDS011;9729;52.296;13.260;2023-03-03T02:32:38;38.10;;;15.90;;
19193;SDS011;9729;52.296;13.260;2023-03-03T02:35:19;36.67;;;15.17;;
19193;SDS011;9729;52.296;13.260;2023-03-03T02:37:51;38.83;;;15.43;;
19193;SDS011;9729;52.296;13.260;2023-03-03T02:40:17;39.80;;;16.90;;
19193;SDS011;9729;52.296;13.260;2023-03-03T02:42:47;40.27;;;16.07;;
19193;SDS011;9729;52.296;13.260;2023-03-03T02:45:14;35.03;;;14.77;;
19193;SDS011;9729;52.296;13.260;2023-03-03T02:47:41;33.03;;;13.77;;
19193;SDS011;9729;52.296;13.260;2023-03-03T02:50:14;36.17;;;16.83;;
19193;SDS011;9729;52.296;13.260;2023-03-03T02:52:40;35.17;;;13.73;;
19193;SDS011;9729;52.296;13.260;2023-03-03T02:55:08;34.57;;;15.63;;
19193;SDS011;9729;52.296;13.260;2023-03-03T02:57:34;39.03;;;17.10;;
19193;SDS011;9729;52.296;13.260;2023-03-03T03:00:02;39.90;;;16.27;;
19193;SDS011;9729;52.296;13.260;2023-03-03T03:02:29;40.03;;;16.63;;
19193;SDS011;9729;52.296;13.260;2023-03-03T03:04:56;32.50;;;15.97;;
19193;SDS011;9729;52.296;13.260;2023-03-03T03:07:23;39.73;;;16.03;;
19193;SDS011;9729;52.296;13.260;2023-03-03T03:09:50;36.40;;;16.03;;
19193;SDS011;9729;52.296;13.260;2023-03-03T03:12:16;41.20;;;16.23;;
19193;SDS011;9729;52.296;13.260;2023-03-03T03:14:43;45.53;;;18.93;;
19193;SDS011;9729;52.296;13.260;2023-03-03T03:17:11;49.67;;;18.70;;
19193;SDS011;9729;52.296;13.260;2023-03-03T03:19:37;45.03;;;17.33;;
19193;SDS011;9729;52.296;13.260;2023-03-03T03:22:04;44.50;;;17.60;;
19193;SDS011;9729;52.296;13.260;2023-03-03T03:24:30;44.63;;;18.13;;
19193;SDS011;9729;52.296;13.260;2023-03-03T03:26:56;37.77;;;15.53;;
19193;SDS011;9729;52.296;13.260;2023-03-03T03:29:22;37.03;;;16.17;;
19193;SDS011;9729;52.296;13.260;2023-03-03T03:31:49;43.43;;;17.67;;
19193;SDS011;9729;52.296;13.260;2023-03-03T03:34:17;41.20;;;17.13;;
19193;SDS011;9729;52.296;13.260;2023-03-03T03:36:43;36.33;;;16.20;;
19193;SDS011;9729;52.296;13.260;2023-03-03T03:39:11;40.17;;;17.50;;
19193;SDS011;9729;52.296;13.260;2023-03-03T03:41:37;43.03;;;18.27;;
19193;SDS011;9729;52.296;13.260;2023-03-03T03:44:05;44.30;;;18.40;;
19193;SDS011;9729;52.296;13.260;2023-03-03T03:46:31;40.30;;;18.67;;
19193;SDS011;9729;52.296;13.260;2023-03-03T03:48:57;43.37;;;17.70;;
19193;SDS011;9729;52.296;13.260;2023-03-03T03:51:25;47.43;;;18.47;;
19193;SDS011;9729;52.296;13.260;2023-03-03T03:53:51;39.80;;;17.80;;
19193;SDS011;9729;52.296;13.260;2023-03-03T03:56:18;46.50;;;16.80;;
19193;SDS011;9729;52.296;13.260;2023-03-03T03:58:44;38.23;;;16.93;;
19193;SDS011;9729;52.296;13.260;2023-03-03T04:01:11;50.57;;;19.33;;
19193;SDS011;9729;52.296;13.260;2023-03-03T04:03:38;39.47;;;18.67;;
19193;SDS011;9729;52.296;13.260;2023-03-03T04:06:05;44.63;;;19.30;;
19193;SDS011;9729;52.296;13.260;2023-03-03T04:08:32;48.17;;;18.60;;
19193;SDS011;9729;52.296;13.260;2023-03-03T04:10:59;50.77;;;19.40;;
19193;SDS011;9729;52.296;13.260;2023-03-03T04:13:25;42.47;;;17.73;;
19193;SDS011;9729;52.296;13.260;2023-03-03T04:15:52;47.10;;;19.50;;
19193;SDS011;9729;52.296;13.260;2023-03-03T04:18:19;42.97;;;18.57;;
19193;SDS011;9729;52.296;13.260;2023-03-03T04:20:45;45.20;;;19.03;;
19193;SDS011;9729;52.296;13.260;2023-03-03T04:23:12;40.73;;;17.00;;
19193;SDS011;9729;52.296;13.260;2023-03-03T04:25:40;46.60;;;18.23;;
19193;SDS011;9729;52.296;13.260;2023-03-03T04:28:07;44.50;;;18.60;;
19193;SDS011;9729;52.296;13.260;2023-03-03T04:30:34;53.40;;;20.37;;
19193;SDS011;9729;52.296;13.260;2023-03-03T04:33:00;51.93;;;20.53;;
19193;SDS011;9729;52.296;13.260;2023-03-03T04:35:27;48.50;;;20.60;;
19193;SDS011;9729;52.296;13.260;2023-03-03T04:37:53;51.50;;;20.17;;
19193;SDS011;9729;52.296;13.260;2023-03-03T04:40:19;56.63;;;21.57;;
19193;SDS011;9729;52.296;13.260;2023-03-03T04:42:47;58.03;;;18.90;;
19193;SDS011;9729;52.296;13.260;2023-03-03T04:45:15;47.00;;;18.40;;
19193;SDS011;9729;52.296;13.260;2023-03-03T04:47:42;54.00;;;20.90;;
19193;SDS011;9729;52.296;13.260;2023-03-03T04:50:09;48.53;;;19.47;;
19193;SDS011;9729;52.296;13.260;2023-03-03T04:52:36;63.87;;;22.87;;
19193;SDS011;9729;52.296;13.260;2023-03-03T04:55:03;54.93;;;21.33;;
19193;SDS011;9729;52.296;13.260;2023-03-03T04:57:29;57.87;;;21.43;;
19193;SDS011;9729;52.296;13.260;2023-03-03T04:59:58;57.50;;;21.57;;
19193;SDS011;9729;52.296;13.260;2023-03-03T05:02:24;60.43;;;21.87;;
19193;SDS011;9729;52.296;13.260;2023-03-03T05:04:50;48.53;;;20.83;;
19193;SDS011;9729;52.296;13.260;2023-03-03T05:07:18;62.03;;;22.10;;
19193;SDS011;9729;52.296;13.260;2023-03-03T05:09:44;55.30;;;21.93;;
19193;SDS011;9729;52.296;13.260;2023-03-03T05:12:11;53.47;;;20.67;;
19193;SDS011;9729;52.296;13.260;2023-03-03T05:14:37;52.20;;;21.27;;
19193;SDS011;9729;52.296;13.260;2023-03-03T05:17:05;57.93;;;22.57;;
19193;SDS011;9729;52.296;13.260;2023-03-03T05:19:31;53.03;;;22.77;;
19193;SDS011;9729;52.296;13.260;2023-03-03T05:21:58;54.67;;;21.57;;
19193;SDS011;9729;52.296;13.260;2023-03-03T05:24:25;55.23;;;20.03;;
19193;SDS011;9729;52.296;13.260;2023-03-03T05:26:52;103.90;;;23.17;;
19193;SDS011;9729;52.296;13.260;2023-03-03T05:29:20;65.10;;;20.37;;
19193;SDS011;9729;52.296;13.260;2023-03-03T05:31:47;72.67;;;19.90;;
19193;SDS011;9729;52.296;13.260;2023-03-03T05:34:14;66.17;;;20.63;;
19193;SDS011;9729;52.296;13.260;2023-03-03T05:36:41;52.30;;;18.93;;
19193;SDS011;9729;52.296;13.260;2023-03-03T05:39:07;59.63;;;21.20;;
19193;SDS011;9729;52.296;13.260;2023-03-03T05:41:34;52.27;;;20.67;;
19193;SDS011;9729;52.296;13.260;2023-03-03T05:44:01;57.77;;;19.73;;
19193;SDS011;9729;52.296;13.260;2023-03-03T05:46:27;53.60;;;21.20;;
19193;SDS011;9729;52.296;13.260;2023-03-03T05:48:53;65.77;;;21.20;;
19193;SDS011;9729;52.296;13.260;2023-03-03T05:51:21;57.10;;;21.17;;
19193;SDS011;9729;52.296;13.260;2023-03-03T05:53:48;66.63;;;22.50;;
19193;SDS011;9729;52.296;13.260;2023-03-03T05:56:14;64.57;;;20.63;;
19193;SDS011;9729;52.296;13.260;2023-03-03T05:58:41;51.10;;;21.80;;
19193;SDS011;9729;52.296;13.260;2023-03-03T06:01:08;55.23;;;20.50;;
19193;SDS011;9729;52.296;13.260;2023-03-03T06:03:35;60.83;;;22.57;;
19193;SDS011;9729;52.296;13.260;2023-03-03T06:06:01;55.87;;;20.43;;
19193;SDS011;9729;52.296;13.260;2023-03-03T06:08:29;58.40;;;21.47;;
19193;SDS011;9729;52.296;13.260;2023-03-03T06:10:56;54.53;;;21.07;;
19193;SDS011;9729;52.296;13.260;2023-03-03T06:13:24;54.47;;;20.50;;
19193;SDS011;9729;52.296;13.260;2023-03-03T06:15:51;50.10;;;19.10;;
19193;SDS011;9729;52.296;13.260;2023-03-03T06:18:17;54.30;;;20.27;;
19193;SDS011;9729;52.296;13.260;2023-03-03T06:20:43;53.40;;;19.83;;
19193;SDS011;9729;52.296;13.260;2023-03-03T06:23:10;51.53;;;19.53;;
19193;SDS011;9729;52.296;13.260;2023-03-03T06:25:38;52.00;;;21.20;;
19193;SDS011;9729;52.296;13.260;2023-03-03T06:28:05;56.50;;;21.10;;
19193;SDS011;9729;52.296;13.260;2023-03-03T06:30:31;56.87;;;20.27;;
19193;SDS011;9729;52.296;13.260;2023-03-03T06:32:57;50.80;;;19.97;;
19193;SDS011;9729;52.296;13.260;2023-03-03T06:35:24;61.57;;;20.83;;
19193;SDS011;9729;52.296;13.260;2023-03-03T06:37:51;53.17;;;19.53;;
19193;SDS011;9729;52.296;13.260;2023-03-03T06:40:17;48.00;;;20.10;;
19193;SDS011;9729;52.296;13.260;2023-03-03T06:42:45;49.83;;;18.93;;
19193;SDS011;9729;52.296;13.260;2023-03-03T06:45:13;48.93;;;19.13;;
19193;SDS011;9729;52.296;13.260;2023-03-03T06:47:40;49.23;;;18.83;;
19193;SDS011;9729;52.296;13.260;2023-03-03T06:50:06;54.97;;;20.20;;
19193;SDS011;9729;52.296;13.260;2023-03-03T06:52:34;54.03;;;20.53;;
19193;SDS011;9729;52.296;13.260;2023-03-03T06:55:01;50.33;;;20.87;;
19193;SDS011;9729;52.296;13.260;2023-03-03T06:57:36;47.27;;;20.03;;
19193;SDS011;9729;52.296;13.260;2023-03-03T07:00:13;47.80;;;17.87;;
19193;SDS011;9729;52.296;13.260;2023-03-03T07:02:41;57.70;;;19.73;;
19193;SDS011;9729;52.296;13.260;2023-03-03T07:05:10;50.13;;;19.17;;
19193;SDS011;9729;52.296;13.260;2023-03-03T07:07:40;45.53;;;19.00;;
19193;SDS011;9729;52.296;13.260;2023-03-03T07:10:10;60.70;;;22.20;;
19193;SDS011;9729;52.296;13.260;2023-03-03T07:12:41;61.20;;;20.40;;
19193;SDS011;9729;52.296;13.260;2023-03-03T07:15:13;53.83;;;20.33;;
19193;SDS011;9729;52.296;13.260;2023-03-03T07:17:43;63.40;;;23.03;;
19193;SDS011;9729;52.296;13.260;2023-03-03T07:20:14;56.60;;;21.33;;
19193;SDS011;9729;52.296;13.260;2023-03-03T07:22:44;55.87;;;20.70;;
19193;SDS011;9729;52.296;13.260;2023-03-03T07:25:17;60.73;;;21.87;;
19193;SDS011;9729;52.296;13.260;2023-03-03T07:27:46;59.27;;;22.43;;
19193;SDS011;9729;52.296;13.260;2023-03-03T07:30:19;57.87;;;21.17;;
19193;SDS011;9729;52.296;13.260;2023-03-03T07:32:49;50.17;;;17.87;;
19193;SDS011;9729;52.296;13.260;2023-03-03T07:35:24;49.00;;;19.47;;
19193;SDS011;9729;52.296;13.260;2023-03-03T07:37:54;46.83;;;17.03;;
19193;SDS011;9729;52.296;13.260;2023-03-03T07:40:27;46.57;;;17.67;;
19193;SDS011;9729;52.296;13.260;2023-03-03T07:43:00;41.67;;;15.97;;
19193;SDS011;9729;52.296;13.260;2023-03-03T07:45:29;35.53;;;13.23;;
19193;SDS011;9729;52.296;13.260;2023-03-03T07:47:58;33.73;;;13.77;;
19193;SDS011;9729;52.296;13.260;2023-03-03T07:50:28;36.93;;;16.23;;
19193;SDS011;9729;52.296;13.260;2023-03-03T07:52:54;36.63;;;14.47;;
19193;SDS011;9729;52.296;13.260;2023-03-03T07:55:25;40.53;;;15.70;;
19193;SDS011;9729;52.296;13.260;2023-03-03T07:57:58;39.37;;;13.60;;
19193;SDS011;9729;52.296;13.260;2023-03-03T08:03:49;39.67;;;15.53;;
19193;SDS011;9729;52.296;13.260;2023-03-03T08:06:26;44.20;;;16.27;;
19193;SDS011;9729;52.296;13.260;2023-03-03T08:09:01;45.70;;;16.87;;
19193;SDS011;9729;52.296;13.260;2023-03-03T08:11:29;37.53;;;14.73;;
19193;SDS011;9729;52.296;13.260;2023-03-03T08:13:55;40.70;;;16.80;;
19193;SDS011;9729;52.296;13.260;2023-03-03T08:16:29;45.93;;;16.33;;
19193;SDS011;9729;52.296;13.260;2023-03-03T08:19:02;42.53;;;17.53;;
19193;SDS011;9729;52.296;13.260;2023-03-03T08:21:29;46.83;;;18.93;;
19193;SDS011;9729;52.296;13.260;2023-03-03T08:23:56;45.77;;;16.40;;
19193;SDS011;9729;52.296;13.260;2023-03-03T08:26:23;46.50;;;18.90;;
19193;SDS011;9729;52.296;13.260;2023-03-03T08:28:50;41.87;;;17.17;;
19193;SDS011;9729;52.296;13.260;2023-03-03T08:31:18;44.73;;;18.53;;
19193;SDS011;9729;52.296;13.260;2023-03-03T08:33:44;46.23;;;18.17;;
19193;SDS011;9729;52.296;13.260;2023-03-03T08:36:12;50.73;;;17.83;;
19193;SDS011;9729;52.296;13.260;2023-03-03T08:38:39;38.93;;;15.73;;
19193;SDS011;9729;52.296;13.260;2023-03-03T08:41:06;47.57;;;17.60;;
19193;SDS011;9729;52.296;13.260;2023-03-03T08:43:33;49.13;;;16.93;;
19193;SDS011;9729;52.296;13.260;2023-03-03T08:46:00;42.50;;;15.87;;
19193;SDS011;9729;52.296;13.260;2023-03-03T08:48:29;36.83;;;16.80;;
19193;SDS011;9729;52.296;13.260;2023-03-03T08:50:56;40.27;;;16.80;;
19193;SDS011;9729;52.296;13.260;2023-03-03T08:53:24;41.70;;;17.37;;
19193;SDS011;9729;52.296;13.260;2023-03-03T08:55:50;37.93;;;17.37;;
19193;SDS011;9729;52.296;13.260;2023-03-03T08:58:17;39.70;;;16.30;;
19193;SDS011;9729;52.296;13.260;2023-03-03T09:00:45;40.57;;;16.73;;
19193;SDS011;9729;52.296;13.260;2023-03-03T09:03:12;31.03;;;14.07;;
19193;SDS011;9729;52.296;13.260;2023-03-03T09:05:39;31.70;;;14.80;;
19193;SDS011;9729;52.296;13.260;2023-03-03T09:08:06;40.23;;;14.90;;
19193;SDS011;9729;52.296;13.260;2023-03-03T09:10:37;39.37;;;15.40;;
19193;SDS011;9729;52.296;13.260;2023-03-03T09:13:06;36.17;;;15.73;;
19193;SDS011;9729;52.296;13.260;2023-03-03T09:15:36;32.47;;;15.00;;
19193;SDS011;9729;52.296;13.260;2023-03-03T09:18:09;35.17;;;14.73;;
19193;SDS011;9729;52.296;13.260;2023-03-03T09:20:39;34.93;;;15.43;;
19193;SDS011;9729;52.296;13.260;2023-03-03T09:26:05;34.67;;;14.50;;
19193;SDS011;9729;52.296;13.260;2023-03-03T09:28:50;39.30;;;15.47;;
19193;SDS011;9729;52.296;13.260;2023-03-03T09:31:21;37.23;;;15.57;;
19193;SDS011;9729;52.296;13.260;2023-03-03T09:33:50;35.53;;;17.10;;
19193;SDS011;9729;52.296;13.260;2023-03-03T09:36:20;33.47;;;14.70;;
19193;SDS011;9729;52.296;13.260;2023-03-03T09:38:50;35.37;;;15.93;;
19193;SDS011;9729;52.296;13.260;2023-03-03T09:47:26;32.13;;;15.77;;
19193;SDS011;9729;52.296;13.260;2023-03-03T09:50:01;37.00;;;16.10;;
19193;SDS011;9729;52.296;13.260;2023-03-03T09:52:38;31.50;;;13.93;;
19193;SDS011;9729;52.296;13.260;2023-03-03T09:55:13;36.80;;;13.33;;
19193;SDS011;9729;52.296;13.260;2023-03-03T09:57:52;31.00;;;14.97;;
19193;SDS011;9729;52.296;13.260;2023-03-03T10:00:30;32.67;;;13.70;;
19193;SDS011;9729;52.296;13.260;2023-03-03T10:03:27;32.30;;;13.63;;
19193;SDS011;9729;52.296;13.260;2023-03-03T10:06:21;26.97;;;12.80;;
19193;SDS011;9729;52.296;13.260;2023-03-03T10:08:57;30.23;;;13.23;;
19193;SDS011;9729;52.296;13.260;2023-03-03T10:11:31;29.40;;;12.23;;
19193;SDS011;9729;52.296;13.260;2023-03-03T10:14:20;28.10;;;12.30;;
19193;SDS011;9729;52.296;13.260;2023-03-03T10:16:59;32.83;;;12.80;;
19193;SDS011;9729;52.296;13.260;2023-03-03T10:19:48;32.47;;;13.63;;
19193;SDS011;9729;52.296;13.260;2023-03-03T10:22:23;28.77;;;12.17;;
19193;SDS011;9729;52.296;13.260;2023-03-03T10:25:00;31.43;;;11.00;;
19193;SDS011;9729;52.296;13.260;2023-03-03T10:27:34;34.77;;;13.67;;
19193;SDS011;9729;52.296;13.260;2023-03-03T10:30:17;29.93;;;13.43;;
19193;SDS011;9729;52.296;13.260;2023-03-03T10:32:48;30.80;;;12.33;;
19193;SDS011;9729;52.296;13.260;2023-03-03T10:38:08;28.57;;;12.57;;
19193;SDS011;9729;52.296;13.260;2023-03-03T10:40:42;29.77;;;13.50;;
19193;SDS011;9729;52.296;13.260;2023-03-03T10:43:15;29.83;;;12.67;;
19193;SDS011;9729;52.296;13.260;2023-03-03T10:45:58;26.60;;;11.83;;
19193;SDS011;9729;52.296;13.260;2023-03-03T10:48:41;27.43;;;11.20;;
19193;SDS011;9729;52.296;13.260;2023-03-03T10:51:18;28.57;;;12.73;;
19193;SDS011;9729;52.296;13.260;2023-03-03T10:53:52;25.43;;;12.03;;
19193;SDS011;9729;52.296;13.260;2023-03-03T10:56:27;28.90;;;11.50;;
19193;SDS011;9729;52.296;13.260;2023-03-03T10:59:02;34.10;;;12.97;;
19193;SDS011;9729;52.296;13.260;2023-03-03T11:01:42;32.43;;;15.53;;
19193;SDS011;9729;52.296;13.260;2023-03-03T11:04:39;34.67;;;13.93;;
19193;SDS011;9729;52.296;13.260;2023-03-03T11:07:11;38.13;;;14.60;;
19193;SDS011;9729;52.296;13.260;2023-03-03T11:10:00;40.67;;;14.83;;
19193;SDS011;9729;52.296;13.260;2023-03-03T11:12:38;32.27;;;12.73;;
19193;SDS011;9729;52.296;13.260;2023-03-03T11:15:20;36.73;;;13.03;;
19193;SDS011;9729;52.296;13.260;2023-03-03T11:18:05;42.80;;;14.73;;
19193;SDS011;9729;52.296;13.260;2023-03-03T11:20:38;37.33;;;15.23;;
19193;SDS011;9729;52.296;13.260;2023-03-03T11:23:18;37.23;;;14.67;;
19193;SDS011;9729;52.296;13.260;2023-03-03T11:26:06;37.17;;;13.47;;
19193;SDS011;9729;52.296;13.260;2023-03-03T11:28:39;30.43;;;12.90;;
19193;SDS011;9729;52.296;13.260;2023-03-03T11:31:13;34.47;;;13.97;;
19193;SDS011;9729;52.296;13.260;2023-03-03T11:33:46;36.57;;;15.60;;
19193;SDS011;9729;52.296;13.260;2023-03-03T11:36:20;31.47;;;12.90;;
19193;SDS011;9729;52.296;13.260;2023-03-03T11:38:51;31.37;;;12.17;;
19193;SDS011;9729;52.296;13.260;2023-03-03T11:41:31;33.00;;;13.70;;
19193;SDS011;9729;52.296;13.260;2023-03-03T11:44:05;29.93;;;12.10;;
19193;SDS011;9729;52.296;13.260;2023-03-03T11:46:37;30.70;;;13.13;;
19193;SDS011;9729;52.296;13.260;2023-03-03T11:49:08;29.47;;;12.57;;
19193;SDS011;9729;52.296;13.260;2023-03-03T11:51:42;29.13;;;12.23;;
19193;SDS011;9729;52.296;13.260;2023-03-03T11:54:14;35.23;;;14.33;;
19193;SDS011;9729;52.296;13.260;2023-03-03T11:56:46;41.70;;;16.03;;
19193;SDS011;9729;52.296;13.260;2023-03-03T11:59:17;50.00;;;17.27;;
19193;SDS011;9729;52.296;13.260;2023-03-03T12:01:54;36.33;;;14.80;;
19193;SDS011;9729;52.296;13.260;2023-03-03T12:04:24;32.63;;;12.40;;
19193;SDS011;9729;52.296;13.260;2023-03-03T12:06:57;37.43;;;14.90;;
19193;SDS011;9729;52.296;13.260;2023-03-03T12:09:36;35.83;;;13.77;;
19193;SDS011;9729;52.296;13.260;2023-03-03T12:12:07;31.60;;;13.93;;
19193;SDS011;9729;52.296;13.260;2023-03-03T12:14:45;32.17;;;14.07;;
19193;SDS011;9729;52.296;13.260;2023-03-03T12:17:21;33.03;;;14.27;;
19193;SDS011;9729;52.296;13.260;2023-03-03T12:19:58;40.43;;;14.37;;
19193;SDS011;9729;52.296;13.260;2023-03-03T12:22:31;32.77;;;15.27;;
19193;SDS011;9729;52.296;13.260;2023-03-03T12:25:20;36.07;;;14.70;;
19193;SDS011;9729;52.296;13.260;2023-03-03T12:27:49;31.67;;;15.17;;
19193;SDS011;9729;52.296;13.260;2023-03-03T12:30:24;41.73;;;15.90;;
19193;SDS011;9729;52.296;13.260;2023-03-03T12:33:01;39.30;;;14.97;;
19193;SDS011;9729;52.296;13.260;2023-03-03T12:35:41;40.67;;;17.40;;
19193;SDS011;9729;52.296;13.260;2023-03-03T12:38:12;42.53;;;17.07;;
19193;SDS011;9729;52.296;13.260;2023-03-03T12:40:47;36.43;;;16.30;;
19193;SDS011;9729;52.296;13.260;2023-03-03T12:43:22;40.07;;;16.87;;
19193;SDS011;9729;52.296;13.260;2023-03-03T12:45:59;40.63;;;16.53;;
19193;SDS011;9729;52.296;13.260;2023-03-03T12:48:33;37.83;;;18.43;;
19193;SDS011;9729;52.296;13.260;2023-03-03T12:51:07;41.90;;;16.33;;
19193;SDS011;9729;52.296;13.260;2023-03-03T12:54:01;35.27;;;15.87;;
19193;SDS011;9729;52.296;13.260;2023-03-03T12:56:37;40.27;;;15.37;;
19193;SDS011;9729;52.296;13.260;2023-03-03T12:59:07;34.57;;;15.07;;
19193;SDS011;9729;52.296;13.260;2023-03-03T13:01:41;35.63;;;16.30;;
19193;SDS011;9729;52.296;13.260;2023-03-03T13:04:27;43.67;;;16.53;;
19193;SDS011;9729;52.296;13.260;2023-03-03T13:07:01;35.47;;;16.97;;
19193;SDS011;9729;52.296;13.260;2023-03-03T13:09:33;45.23;;;18.57;;
19193;SDS011;9729;52.296;13.260;2023-03-03T13:14:54;38.03;;;15.37;;
19193;SDS011;9729;52.296;13.260;2023-03-03T13:17:25;44.20;;;18.13;;
19193;SDS011;9729;52.296;13.260;2023-03-03T13:19:55;35.50;;;17.43;;
19193;SDS011;9729;52.296;13.260;2023-03-03T13:22:31;37.83;;;17.80;;
19193;SDS011;9729;52.296;13.260;2023-03-03T13:25:02;40.40;;;17.80;;
19193;SDS011;9729;52.296;13.260;2023-03-03T13:27:35;38.57;;;17.13;;
19193;SDS011;9729;52.296;13.260;2023-03-03T13:30:08;39.60;;;16.97;;
19193;SDS011;9729;52.296;13.260;2023-03-03T13:32:41;44.83;;;17.87;;
19193;SDS011;9729;52.296;13.260;2023-03-03T13:35:14;41.23;;;19.00;;
19193;SDS011;9729;52.296;13.260;2023-03-03T13:37:48;35.50;;;16.80;;
19193;SDS011;9729;52.296;13.260;2023-03-03T13:40:20;33.93;;;16.60;;
19193;SDS011;9729;52.296;13.260;2023-03-03T13:42:49;35.83;;;17.93;;
19193;SDS011;9729;52.296;13.260;2023-03-03T13:45:21;41.53;;;17.83;;
19193;SDS011;9729;52.296;13.260;2023-03-03T13:47:52;44.13;;;18.27;;
19193;SDS011;9729;52.296;13.260;2023-03-03T13:50:26;36.43;;;17.40;;
19193;SDS011;9729;52.296;13.260;2023-03-03T13:53:10;40.10;;;19.83;;
19193;SDS011;9729;52.296;13.260;2023-03-03T13:55:44;45.60;;;19.57;;
19193;SDS011;9729;52.296;13.260;2023-03-03T13:58:17;43.43;;;18.97;;
19193;SDS011;9729;52.296;13.260;2023-03-03T14:00:52;38.90;;;17.93;;
19193;SDS011;9729;52.296;13.260;2023-03-03T14:03:25;39.77;;;19.47;;
19193;SDS011;9729;52.296;13.260;2023-03-03T14:06:01;34.93;;;16.93;;
19193;SDS011;9729;52.296;13.260;2023-03-03T14:08:39;54.93;;;23.83;;
19193;SDS011;9729;52.296;13.260;2023-03-03T14:11:18;45.97;;;21.07;;
19193;SDS011;9729;52.296;13.260;2023-03-03T14:13:52;38.27;;;18.07;;
19193;SDS011;9729;52.296;13.260;2023-03-03T14:16:31;33.20;;;15.60;;
19193;SDS011;9729;52.296;13.260;2023-03-03T14:19:05;32.93;;;17.00;;
19193;SDS011;9729;52.296;13.260;2023-03-03T14:21:37;36.50;;;16.77;;
19193;SDS011;9729;52.296;13.260;2023-03-03T14:24:11;29.40;;;14.67;;
19193;SDS011;9729;52.296;13.260;2023-03-03T14:26:46;27.37;;;13.60;;
19193;SDS011;9729;52.296;13.260;2023-03-03T14:29:18;27.97;;;14.10;;
19193;SDS011;9729;52.296;13.260;2023-03-03T14:31:46;24.57;;;13.30;;
19193;SDS011;9729;52.296;13.260;2023-03-03T14:34:29;28.83;;;13.83;;
19193;SDS011;9729;52.296;13.260;2023-03-03T14:37:07;26.57;;;14.67;;
19193;SDS011;9729;52.296;13.260;2023-03-03T14:39:48;32.57;;;14.53;;
19193;SDS011;9729;52.296;13.260;2023-03-03T14:42:29;29.33;;;14.47;;
19193;SDS011;9729;52.296;13.260;2023-03-03T14:44:57;31.03;;;15.23;;
19193;SDS011;9729;52.296;13.260;2023-03-03T14:47:24;33.20;;;14.87;;
19193;SDS011;9729;52.296;13.260;2023-03-03T14:49:52;26.50;;;14.70;;
19193;SDS011;9729;52.296;13.260;2023-03-03T14:52:21;31.37;;;15.43;;
19193;SDS011;9729;52.296;13.260;2023-03-03T14:54:52;30.63;;;14.90;;
19193;SDS011;9729;52.296;13.260;2023-03-03T14:57:21;32.90;;;14.93;;
19193;SDS011;9729;52.296;13.260;2023-03-03T14:59:55;29.90;;;14.80;;
19193;SDS011;9729;52.296;13.260;2023-03-03T15:02:27;31.97;;;15.07;;
19193;SDS011;9729;52.296;13.260;2023-03-03T15:05:11;28.87;;;13.23;;